Edina, Minnesota
Current Conditions -  °F | °C
As of 5:53 PM on Saturday 25 Oct 2014 (Local Time) from KMSP Reporting Station
Clear Clear  
Wind Chill: 59°   Ceiling: Unl
Heat Index: 59°   Visibility: 10mi
Dew Point: 24°   Wind: 14mph
Humidity: 26%   Direction: 300°WNW
Pressure: 30.04"   Gusts: NA
Location:  44.91°N, 93.35°W
Report Text: KMSP 252253Z 30012KT 10SM CLR 15/M04 A3004 RMK AO2 SLP173 T01501044
Loading
Personal Weather Stations






























Interactive Weather Map
Tropical Storm Tracking
New forecast layout! Learn more

10-Day Weather Forecast

Advertisements
Track Severe Weather on mobile